createdAt,value
2022-08-22T00:04:43.862Z,18.90
2022-08-22T00:09:59.687Z,18.85
2022-08-22T00:15:16.400Z,19.09
2022-08-22T00:20:45.478Z,18.96
2022-08-22T00:25:56.082Z,18.91
2022-08-22T00:31:09.215Z,18.78
2022-08-22T00:36:25.863Z,18.93
2022-08-22T00:41:51.045Z,19.39
2022-08-22T00:47:08.773Z,19.32
2022-08-22T00:53:01.092Z,19.64
2022-08-22T00:58:30.251Z,19.71
2022-08-22T01:03:59.850Z,19.49
2022-08-22T01:09:10.994Z,19.78
2022-08-22T01:14:41.991Z,19.68
2022-08-22T01:20:18.185Z,19.81
2022-08-22T01:25:58.603Z,19.97
2022-08-22T01:31:42.576Z,19.94
2022-08-22T01:37:22.301Z,19.80
2022-08-22T01:43:00.361Z,19.66
2022-08-22T01:48:12.619Z,19.95
2022-08-22T01:53:25.025Z,19.74
2022-08-22T01:58:32.236Z,19.96
2022-08-22T02:03:44.853Z,19.84
2022-08-22T02:09:00.347Z,19.77
2022-08-22T02:14:15.580Z,19.47
2022-08-22T02:19:28.708Z,19.34
2022-08-22T02:24:48.635Z,19.19
2022-08-22T02:30:01.130Z,19.10
2022-08-22T02:35:11.483Z,19.29
2022-08-22T02:40:27.488Z,19.02
2022-08-22T02:45:39.825Z,18.76
2022-08-22T02:50:53.705Z,18.81
2022-08-22T02:56:04.789Z,18.73
2022-08-22T03:01:22.699Z,18.64
2022-08-22T03:06:40.360Z,18.76
2022-08-22T03:11:49.469Z,18.63
2022-08-22T03:16:59.730Z,18.75
2022-08-22T03:22:09.834Z,18.95
2022-08-22T03:27:32.919Z,18.79
2022-08-22T03:32:54.882Z,18.91
2022-08-22T03:38:15.761Z,19.03
2022-08-22T03:43:37.408Z,18.98
2022-08-22T03:49:11.710Z,18.75
2022-08-22T03:54:39.438Z,18.66
2022-08-22T04:00:15.744Z,18.70
2022-08-22T04:05:34.624Z,19.12
2022-08-22T04:11:02.528Z,19.18
2022-08-22T04:16:55.044Z,19.27
2022-08-22T04:22:19.314Z,19.36
2022-08-22T04:27:32.241Z,19.61
2022-08-22T04:32:43.941Z,19.52
2022-08-22T04:37:54.672Z,19.60
2022-08-22T04:43:03.535Z,19.12
2022-08-22T04:48:14.104Z,18.79
2022-08-22T04:53:40.086Z,18.78
2022-08-22T04:58:56.517Z,18.87
2022-08-22T05:04:04.950Z,18.79
2022-08-22T05:09:21.031Z,18.98
2022-08-22T05:14:34.037Z,18.91
2022-08-22T05:19:42.909Z,18.92
2022-08-22T05:24:53.455Z,19.15
2022-08-22T05:30:03.564Z,19.59
2022-08-22T05:35:10.830Z,19.51
2022-08-22T05:40:21.641Z,19.46
2022-08-22T05:45:27.575Z,19.51
2022-08-22T05:50:37.973Z,19.44
2022-08-22T05:55:52.567Z,19.31
2022-08-22T06:01:08.035Z,19.25
2022-08-22T06:06:18.194Z,19.17
2022-08-22T06:11:34.083Z,18.90
2022-08-22T06:16:47.391Z,19.29
2022-08-22T06:21:54.282Z,19.45
2022-08-22T06:27:06.415Z,19.10
2022-08-22T06:32:15.544Z,19.14
2022-08-22T06:37:26.790Z,19.16
2022-08-22T06:42:38.952Z,19.43
2022-08-22T06:47:49.839Z,19.39
2022-08-22T06:53:01.115Z,19.34
2022-08-22T06:58:12.709Z,19.44
2022-08-22T07:03:24.693Z,19.57
2022-08-22T07:08:38.580Z,19.84
2022-08-22T07:13:52.768Z,19.91
2022-08-22T07:18:57.323Z,19.95
2022-08-22T07:24:04.327Z,20.29
2022-08-22T07:29:15.142Z,20.74
2022-08-22T07:34:44.881Z,21.02
2022-08-22T07:39:55.440Z,21.32
2022-08-22T07:45:08.448Z,21.82
2022-08-22T07:50:20.069Z,22.22
2022-08-22T07:55:26.916Z,22.43
2022-08-22T08:00:34.042Z,22.31
2022-08-22T08:05:40.074Z,22.74
2022-08-22T08:10:44.439Z,22.71
2022-08-22T08:15:51.357Z,22.89
2022-08-22T08:20:59.494Z,23.64
2022-08-22T08:26:10.908Z,23.26
2022-08-22T08:31:24.819Z,23.04
2022-08-22T08:36:38.144Z,22.80
2022-08-22T08:42:07.329Z,23.12
2022-08-22T08:47:23.550Z,22.99
2022-08-22T08:52:44.727Z,23.60
2022-08-22T08:58:06.635Z,24.37
2022-08-22T09:03:27.440Z,24.33
2022-08-22T09:14:31.853Z,23.82
2022-08-22T09:20:17.577Z,24.18
2022-08-22T09:25:28.697Z,24.49
2022-08-22T09:36:35.135Z,26.28
2022-08-22T09:41:45.004Z,25.74
2022-08-22T09:46:57.757Z,24.99
2022-08-22T09:52:15.274Z,24.63
2022-08-22T09:57:30.733Z,24.42
2022-08-22T10:02:43.708Z,24.29
2022-08-22T10:08:11.494Z,24.84
2022-08-22T10:13:27.847Z,25.97
2022-08-22T10:18:44.053Z,26.99
2022-08-22T10:24:03.168Z,26.77
2022-08-22T10:29:39.973Z,27.14
2022-08-22T10:34:49.136Z,27.75
2022-08-22T10:40:04.649Z,28.12
2022-08-22T10:45:23.672Z,27.98
2022-08-22T10:50:44.228Z,28.18
2022-08-22T10:55:55.362Z,28.19
2022-08-22T11:01:37.125Z,27.82
2022-08-22T11:06:32.096Z,28.10
2022-08-22T11:11:43.968Z,28.28
2022-08-22T11:16:58.017Z,28.56
2022-08-22T11:22:14.751Z,28.07
2022-08-22T11:27:35.316Z,27.12
2022-08-22T11:33:33.809Z,26.05
2022-08-22T11:39:01.148Z,24.98
2022-08-22T11:44:13.809Z,24.13
2022-08-22T11:49:34.262Z,23.52
2022-08-22T11:55:05.548Z,23.20
2022-08-22T12:00:24.953Z,23.05
2022-08-22T12:05:34.409Z,22.86
2022-08-22T12:10:44.414Z,22.97
2022-08-22T12:15:57.973Z,23.36
2022-08-22T12:21:28.102Z,23.78
2022-08-22T12:26:44.284Z,23.69
2022-08-22T12:32:34.002Z,23.80
2022-08-22T12:37:52.299Z,23.95
2022-08-22T12:43:26.656Z,23.81
2022-08-22T12:49:01.400Z,23.91
2022-08-22T12:54:52.299Z,24.11
2022-08-22T13:00:01.750Z,24.14
2022-08-22T13:05:19.994Z,24.31
2022-08-22T13:10:45.876Z,24.81
2022-08-22T13:16:00.633Z,25.44
2022-08-22T13:21:14.498Z,26.07
2022-08-22T13:26:31.756Z,26.33
2022-08-22T13:31:42.329Z,26.71
2022-08-22T13:36:53.059Z,26.59
2022-08-22T13:42:00.630Z,26.49
2022-08-22T13:47:14.219Z,26.28
2022-08-22T13:52:29.825Z,26.08
2022-08-22T13:57:39.706Z,25.93
2022-08-22T14:03:00.259Z,25.55
2022-08-22T14:08:18.655Z,25.44
2022-08-22T14:13:41.237Z,25.48
2022-08-22T14:18:53.850Z,25.58
2022-08-22T14:24:12.859Z,25.58
2022-08-22T14:29:19.465Z,25.71
2022-08-22T14:34:24.551Z,25.63
2022-08-22T14:39:38.119Z,25.58
2022-08-22T14:45:01.485Z,25.44
2022-08-22T14:50:31.828Z,25.08
2022-08-22T14:55:40.093Z,24.39
2022-08-22T15:00:51.021Z,24.01
2022-08-22T15:06:00.565Z,23.69
2022-08-22T15:11:22.054Z,23.46
2022-08-22T15:16:33.277Z,23.29
2022-08-22T15:21:41.531Z,22.81
2022-08-22T15:26:55.321Z,20.26
2022-08-22T15:32:03.908Z,20.17
2022-08-22T15:37:29.789Z,20.08
2022-08-22T15:42:40.619Z,20.21
2022-08-22T15:47:52.142Z,20.44
2022-08-22T15:53:17.885Z,20.10
2022-08-22T15:58:25.385Z,20.03
2022-08-22T16:03:32.903Z,19.73
2022-08-22T16:08:49.345Z,19.67
2022-08-22T16:14:24.787Z,19.69
2022-08-22T16:19:31.020Z,19.73
2022-08-22T16:25:14.386Z,19.61
2022-08-22T16:30:36.765Z,19.64
2022-08-22T16:36:26.163Z,19.52
2022-08-22T16:41:36.273Z,19.76
2022-08-22T16:46:46.959Z,19.71
2022-08-22T16:52:24.003Z,20.14
2022-08-22T16:57:36.001Z,20.38
2022-08-22T17:03:03.896Z,20.39
2022-08-22T17:08:22.313Z,20.49
2022-08-22T17:13:42.157Z,20.46
2022-08-22T17:19:10.229Z,20.44
2022-08-22T17:24:32.019Z,20.34
2022-08-22T17:29:53.842Z,20.12
2022-08-22T17:35:15.546Z,20.40
2022-08-22T17:40:38.149Z,19.95
2022-08-22T17:45:56.618Z,19.89
2022-08-22T17:51:12.118Z,19.94
2022-08-22T17:56:23.855Z,19.90
2022-08-22T18:01:44.266Z,19.80
2022-08-22T18:06:56.712Z,19.90
2022-08-22T18:12:08.658Z,19.98
2022-08-22T18:17:21.537Z,19.97
2022-08-22T18:22:31.934Z,19.82
2022-08-22T18:27:37.560Z,19.58
2022-08-22T18:32:48.591Z,19.36
2022-08-22T18:38:03.931Z,19.42
2022-08-22T18:43:36.116Z,19.58
2022-08-22T18:49:11.620Z,19.74
2022-08-22T18:54:42.032Z,19.49
2022-08-22T19:00:00.879Z,19.67
2022-08-22T19:05:21.183Z,19.49
2022-08-22T19:10:50.629Z,19.55
2022-08-22T19:16:06.170Z,19.46
2022-08-22T19:21:52.752Z,19.57
2022-08-22T19:27:31.417Z,19.40
2022-08-22T19:33:00.556Z,19.22
2022-08-22T19:38:07.725Z,19.25
2022-08-22T19:43:29.894Z,19.07
2022-08-22T19:48:44.753Z,19.08
2022-08-22T19:53:57.055Z,18.86
2022-08-22T19:59:16.653Z,18.70
2022-08-22T20:04:40.957Z,18.60
2022-08-22T20:09:55.794Z,18.81
2022-08-22T20:15:16.444Z,18.78
2022-08-22T20:20:53.968Z,18.87
2022-08-22T20:25:59.757Z,19.06
2022-08-22T20:31:10.743Z,19.05
2022-08-22T20:36:28.070Z,18.98
2022-08-22T20:41:38.697Z,19.02
2022-08-22T20:46:55.003Z,18.76
2022-08-22T20:52:02.123Z,18.87
2022-08-22T20:57:16.227Z,18.91
2022-08-22T21:02:25.225Z,18.90
2022-08-22T21:07:30.283Z,18.83
2022-08-22T21:12:34.278Z,18.74
2022-08-22T21:17:39.972Z,18.53
2022-08-22T21:22:44.338Z,18.62
2022-08-22T21:27:49.515Z,18.74
2022-08-22T21:32:56.607Z,18.83
2022-08-22T21:38:02.578Z,18.85
2022-08-22T21:43:11.681Z,18.65
2022-08-22T21:48:40.055Z,18.73
2022-08-22T21:53:44.076Z,18.66
2022-08-22T21:58:49.342Z,18.92
2022-08-22T22:03:58.344Z,18.98
2022-08-22T22:09:02.404Z,18.90
2022-08-22T22:14:06.958Z,19.15
2022-08-22T22:19:12.517Z,19.17
2022-08-22T22:24:16.750Z,18.61
2022-08-22T22:29:21.049Z,18.85
2022-08-22T22:34:26.764Z,19.06
2022-08-22T22:39:30.766Z,18.92
2022-08-22T22:44:35.272Z,18.49
2022-08-22T22:49:40.654Z,18.24
2022-08-22T22:54:45.684Z,18.36
2022-08-22T22:59:49.700Z,18.58
2022-08-22T23:04:57.229Z,18.71
2022-08-22T23:10:02.338Z,18.86
2022-08-22T23:15:07.408Z,18.89
2022-08-22T23:20:13.087Z,18.83
2022-08-22T23:25:17.328Z,18.77
2022-08-22T23:30:21.772Z,18.71
2022-08-22T23:35:27.204Z,18.79
2022-08-22T23:40:31.368Z,18.51
2022-08-22T23:45:35.390Z,18.88
2022-08-22T23:50:41.002Z,18.77
2022-08-22T23:55:44.979Z,18.46
